Wetterdaten: Woche 24.08.15 - 30.08.15 (KW35)
Datum Zeit Temp. Aussen Temp. o. S. +5cm Feuchte Auss BlattFeu 1 Luftdruck Regen Sonnenschein Regendauer Solar Windben Empfang
24.08.2015 00:00 18,0 C 16,8 C 15,7 C 92 % 15 lf 1003,8 hPa 4,0 l/m 0,00 h 0,97 h 0 W/m 11,1 km/h (2 Bft) 97,86 %
24.08.2015 01:00 17,4 C 16,7 C 15,6 C 95 % 15 lf 1003,5 hPa 1,4 l/m 0,00 h 0,73 h 0 W/m 6,5 km/h (2 Bft) 95,09 %
24.08.2015 02:00 17,1 C 16,7 C 15,6 C 96 % 15 lf 1003,7 hPa 0,0 l/m 0,00 h 0,00 h 0 W/m 5,4 km/h (1 Bft) 97,44 %
24.08.2015 03:00 16,8 C 16,2 C 15,2 C 96 % 15 lf 1003,6 hPa 0,2 l/m 0,00 h 0,00 h 0 W/m 4,2 km/h (1 Bft) 97,94 %
24.08.2015 04:00 16,7 C 16,2 C 15,2 C 97 % 15 lf 1003,5 hPa 0,0 l/m 0,00 h 0,00 h 0 W/m 5,7 km/h (1 Bft) 96,37 %
24.08.2015 05:00 16,4 C 16,0 C 14,9 C 97 % 15 lf 1003,3 hPa 0,0 l/m 0,00 h 0,00 h 0 W/m 5,9 km/h (2 Bft) 96,54 %
24.08.2015 06:00 15,9 C 15,5 C 14,3 C 97 % 15 lf 1003,1 hPa 0,0 l/m 0,00 h 0,00 h 11 W/m 6,4 km/h (2 Bft) 96,49 %
24.08.2015 07:00 15,9 C 16,0 C 14,7 C 98 % 15 lf 1003,0 hPa 0,0 l/m 0,67 h 0,00 h 90 W/m 6,6 km/h (2 Bft) 97,11 %
24.08.2015 08:00 16,5 C 17,1 C 15,5 C 98 % 15 lf 1002,8 hPa 0,0 l/m 0,73 h 0,00 h 179 W/m 8,2 km/h (2 Bft) 98,17 %
24.08.2015 09:00 17,5 C 21,0 C 16,9 C 99 % 8 lf 1002,7 hPa 0,0 l/m 0,87 h 0,00 h 372 W/m 14,6 km/h (3 Bft) 95,16 %
24.08.2015 10:00 20,0 C 24,8 C 22,9 C 88 % 0 lf 1002,5 hPa 0,0 l/m 0,87 h 0,00 h 540 W/m 21,3 km/h (4 Bft) 96,61 %
24.08.2015 11:00 20,4 C 21,6 C 19,7 C 84 % 0 lf 1002,2 hPa 0,0 l/m 0,47 h 0,60 h 293 W/m 19,1 km/h (3 Bft) 98,48 %
24.08.2015 12:00 21,1 C 22,6 C 20,9 C 80 % 0 lf 1001,5 hPa 0,0 l/m 0,23 h 0,07 h 289 W/m 20,1 km/h (4 Bft) 95,81 %
24.08.2015 13:00 21,2 C 23,1 C 19,2 C 84 % 1 lf 1000,6 hPa 0,2 l/m 0,47 h 0,30 h 473 W/m 20,0 km/h (4 Bft) 96,72 %
24.08.2015 14:00 23,0 C 24,3 C 22,0 C 76 % 0 lf 999,5 hPa 0,0 l/m 0,27 h 0,00 h 288 W/m 25,3 km/h (4 Bft) 97,44 %
24.08.2015 15:00 23,8 C 26,3 C 23,2 C 73 % 0 lf 999,2 hPa 0,0 l/m 0,73 h 0,00 h 493 W/m 32,6 km/h (5 Bft) 97,43 %
24.08.2015 16:00 23,8 C 25,4 C 22,9 C 73 % 0 lf 999,0 hPa 0,0 l/m 0,40 h 0,00 h 324 W/m 30,2 km/h (5 Bft) 95,97 %
24.08.2015 17:00 24,3 C 26,4 C 22,7 C 62 % 0 lf 999,1 hPa 0,0 l/m 0,77 h 0,00 h 416 W/m 37,3 km/h (5 Bft) 96,15 %
24.08.2015 18:00 23,8 C 23,7 C 21,5 C 56 % 0 lf 999,4 hPa 0,0 l/m 0,07 h 0,03 h 101 W/m 32,5 km/h (5 Bft) 98,58 %
24.08.2015 19:00 20,7 C 17,8 C 16,4 C 73 % 13 lf 1000,1 hPa 0,8 l/m 0,10 h 0,60 h 39 W/m 27,2 km/h (4 Bft) 95,41 %
24.08.2015 20:00 18,5 C 17,6 C 15,3 C 80 % 2 lf 1000,5 hPa 0,0 l/m 0,00 h 0,00 h 15 W/m 26,9 km/h (4 Bft) 94,99 %
24.08.2015 21:00 19,2 C 19,4 C 16,2 C 74 % 0 lf 1001,2 hPa 0,0 l/m 0,00 h 0,00 h 0 W/m 24,8 km/h (4 Bft) 98,73 %
24.08.2015 22:00 19,4 C 19,3 C 17,5 C 71 % 0 lf 1001,6 hPa 0,0 l/m 0,00 h 0,00 h 0 W/m 32,2 km/h (5 Bft) 95,99 %
24.08.2015 23:00 18,5 C 18,1 C 16,7 C 75 % 0 lf 1002,4 hPa 0,0 l/m 0,00 h 0,07 h 0 W/m 32,8 km/h (5 Bft) 94,83 %
25.08.2015 00:00 17,6 C 17,7 C 16,1 C 77 % 0 lf 1002,6 hPa 0,0 l/m 0,00 h 0,00 h 0 W/m 34,3 km/h (5 Bft) 91,65 %
25.08.2015 01:00 17,1 C 16,9 C 15,6 C 77 % 0 lf 1003,0 hPa 0,0 l/m 0,00 h 0,00 h 0 W/m 35,0 km/h (5 Bft) 96,45 %
25.08.2015 02:00 16,5 C 16,4 C 14,9 C 78 % 0 lf 1003,5 hPa 0,0 l/m 0,00 h 0,00 h 0 W/m 30,4 km/h (5 Bft) 94,87 %
25.08.2015 03:00 15,8 C 15,6 C 14,2 C 82 % 0 lf 1003,9 hPa 0,0 l/m 0,00 h 0,00 h 0 W/m 36,5 km/h (5 Bft) 96,02 %
25.08.2015 04:00 15,0 C 14,2 C 12,9 C 88 % 13 lf 1004,5 hPa 0,2 l/m 0,00 h 0,73 h 0 W/m 29,0 km/h (5 Bft) 94,01 %
25.08.2015 05:00 14,7 C 14,1 C 13,0 C 93 % 15 lf 1005,5 hPa 2,6 l/m 0,00 h 1,00 h 0 W/m 29,6 km/h (5 Bft) 97,70 %
25.08.2015 06:00 14,8 C 14,4 C 13,3 C 96 % 15 lf 1007,1 hPa 0,2 l/m 0,00 h 0,85 h 0 W/m 28,8 km/h (5 Bft) 96,60 %
25.08.2015 07:00 14,7 C 14,4 C 13,3 C 96 % 15 lf 1008,9 hPa 0,0 l/m 0,00 h 0,20 h 21 W/m 28,1 km/h (4 Bft) 95,07 %
25.08.2015 08:00 14,8 C 14,8 C 13,3 C 95 % 9 lf 1010,2 hPa 0,0 l/m 0,00 h 0,27 h 89 W/m 28,5 km/h (4 Bft) 98,37 %
25.08.2015 09:00 15,7 C 16,8 C 14,1 C 92 % 0 lf 1011,4 hPa 0,0 l/m 0,43 h 0,07 h 211 W/m 30,5 km/h (5 Bft) 98,15 %
25.08.2015 10:00 17,3 C 20,5 C 17,2 C 85 % 0 lf 1012,3 hPa 0,0 l/m 0,83 h 0,00 h 397 W/m 34,1 km/h (5 Bft) 93,60 %
25.08.2015 11:00 17,5 C 19,7 C 17,3 C 82 % 0 lf 1013,0 hPa 0,0 l/m 0,53 h 0,00 h 346 W/m 34,2 km/h (5 Bft) 98,22 %
25.08.2015 12:00 18,9 C 23,3 C 19,9 C 76 % 0 lf 1013,5 hPa 0,0 l/m 0,43 h 0,00 h 489 W/m 31,8 km/h (5 Bft) 98,41 %
25.08.2015 13:00 19,4 C 23,1 C 19,1 C 71 % 0 lf 1014,0 hPa 0,0 l/m 0,60 h 0,00 h 562 W/m 33,8 km/h (5 Bft) 95,31 %
25.08.2015 14:00 19,8 C 23,7 C 18,9 C 65 % 0 lf 1014,4 hPa 0,0 l/m 0,73 h 0,00 h 536 W/m 31,9 km/h (5 Bft) 97,16 %
25.08.2015 15:00 20,4 C 24,2 C 19,2 C 62 % 0 lf 1014,5 hPa 0,0 l/m 0,90 h 0,00 h 577 W/m 29,7 km/h (5 Bft) 97,41 %
25.08.2015 16:00 20,8 C 23,9 C 19,5 C 59 % 0 lf 1014,2 hPa 0,0 l/m 0,73 h 0,00 h 423 W/m 24,0 km/h (4 Bft) 96,61 %
25.08.2015 17:00 20,3 C 22,3 C 18,4 C 59 % 0 lf 1014,1 hPa 0,0 l/m 0,27 h 0,00 h 292 W/m 22,9 km/h (4 Bft) 85,05 %
25.08.2015 18:00 19,3 C 19,4 C 17,5 C 59 % 0 lf 1013,9 hPa 0,0 l/m 0,07 h 0,00 h 76 W/m 8,1 km/h (2 Bft) 82,21 %
25.08.2015 19:00 18,8 C 18,8 C 16,8 C 63 % 0 lf 1013,8 hPa 0,0 l/m 0,00 h 0,33 h 35 W/m 2,4 km/h (1 Bft) 97,12 %
25.08.2015 20:00 18,1 C 16,9 C 14,6 C 70 % 3 lf 1014,1 hPa 0,2 l/m 0,00 h 0,40 h 6 W/m 2,9 km/h (1 Bft) 94,13 %
25.08.2015 21:00 17,3 C 17,0 C 15,7 C 74 % 0 lf 1013,9 hPa 0,0 l/m 0,00 h 0,00 h 0 W/m 4,3 km/h (1 Bft) 96,51 %
25.08.2015 22:00 17,0 C 17,2 C 15,8 C 76 % 0 lf 1013,9 hPa 0,0 l/m 0,00 h 0,00 h 0 W/m 3,6 km/h (1 Bft) 97,79 %
25.08.2015 23:00 18,0 C 18,3 C 16,6 C 75 % 0 lf 1013,4 hPa 0,0 l/m 0,00 h 0,00 h 0 W/m 9,1 km/h (2 Bft) 94,75 %
26.08.2015 00:00 18,2 C 18,3 C 16,7 C 75 % 0 lf 1013,2 hPa 0,0 l/m 0,00 h 0,00 h 0 W/m 8,9 km/h (2 Bft) 96,45 %
26.08.2015 01:00 18,3 C 18,3 C 16,7 C 75 % 0 lf 1013,1 hPa 0,0 l/m 0,00 h 0,00 h 0 W/m 6,6 km/h (2 Bft) 98,08 %
26.08.2015 02:00 18,6 C 18,8 C 17,0 C 77 % 0 lf 1013,3 hPa 0,0 l/m 0,00 h 0,00 h 0 W/m 9,8 km/h (2 Bft) 95,02 %
26.08.2015 03:00 18,5 C 18,1 C 16,5 C 81 % 0 lf 1013,4 hPa 0,0 l/m 0,00 h 0,00 h 0 W/m 3,2 km/h (1 Bft) 96,23 %
26.08.2015 04:00 18,0 C 17,8 C 16,6 C 84 % 0 lf 1013,5 hPa 0,0 l/m 0,00 h 0,00 h 0 W/m 2,4 km/h (1 Bft) 97,51 %
26.08.2015 05:00 18,0 C 17,8 C 16,7 C 85 % 0 lf 1013,4 hPa 0,0 l/m 0,00 h 0,00 h 0 W/m 1,1 km/h (1 Bft) 94,90 %
26.08.2015 06:00 18,0 C 18,2 C 16,7 C 85 % 0 lf 1013,5 hPa 0,0 l/m 0,00 h 0,00 h 5 W/m 1,5 km/h (1 Bft) 97,25 %
26.08.2015 07:00 18,1 C 18,5 C 16,9 C 85 % 0 lf 1013,5 hPa 0,0 l/m 0,17 h 0,00 h 48 W/m 0,5 km/h (0 Bft) 96,50 %
26.08.2015 08:00 18,5 C 19,1 C 17,5 C 85 % 0 lf 1013,6 hPa 0,0 l/m 0,17 h 0,00 h 106 W/m 5,3 km/h (1 Bft) 95,12 %
26.08.2015 09:00 19,8 C 23,0 C 19,0 C 82 % 0 lf 1013,7 hPa 0,0 l/m 0,70 h 0,00 h 310 W/m 7,7 km/h (2 Bft) 98,53 %
26.08.2015 10:00 20,8 C 23,5 C 21,0 C 77 % 0 lf 1013,5 hPa 0,0 l/m 0,40 h 0,00 h 333 W/m 11,0 km/h (2 Bft) 95,04 %
26.08.2015 11:00 23,1 C 28,4 C 25,6 C 70 % 0 lf 1012,9 hPa 0,0 l/m 1,00 h 0,00 h 607 W/m 11,7 km/h (2 Bft) 95,98 %
26.08.2015 12:00 24,8 C 29,5 C 26,0 C 65 % 0 lf 1012,1 hPa 0,0 l/m 0,80 h 0,00 h 626 W/m 11,8 km/h (2 Bft) 98,39 %
26.08.2015 13:00 26,7 C 33,0 C 26,0 C 60 % 0 lf 1011,6 hPa 0,0 l/m 1,00 h 0,00 h 757 W/m 11,0 km/h (2 Bft) 95,16 %
26.08.2015 14:00 28,3 C 33,9 C 26,6 C 56 % 0 lf 1011,1 hPa 0,0 l/m 0,97 h 0,00 h 743 W/m 9,8 km/h (2 Bft) 95,88 %
26.08.2015 15:00 28,9 C 33,1 C 27,2 C 55 % 0 lf 1010,7 hPa 0,0 l/m 0,97 h 0,00 h 697 W/m 9,2 km/h (2 Bft) 96,80 %
26.08.2015 16:00 29,1 C 32,2 C 27,2 C 53 % 0 lf 1010,1 hPa 0,0 l/m 1,00 h 0,00 h 538 W/m 11,3 km/h (2 Bft) 96,85 %
26.08.2015 17:00 28,4 C 30,0 C 26,0 C 53 % 0 lf 1009,2 hPa 0,0 l/m 1,00 h 0,00 h 368 W/m 12,8 km/h (3 Bft) 95,63 %
26.08.2015 18:00 27,2 C 27,0 C 24,7 C 54 % 0 lf 1008,5 hPa 0,0 l/m 0,13 h 0,00 h 114 W/m 11,4 km/h (2 Bft) 95,08 %
26.08.2015 19:00 26,0 C 25,8 C 23,7 C 58 % 0 lf 1008,0 hPa 0,0 l/m 0,23 h 0,00 h 61 W/m 7,8 km/h (2 Bft) 98,30 %
26.08.2015 20:00 25,2 C 24,8 C 22,8 C 59 % 0 lf 1007,3 hPa 0,0 l/m 0,00 h 0,00 h 15 W/m 10,9 km/h (2 Bft) 95,61 %
26.08.2015 21:00 24,7 C 24,6 C 22,5 C 58 % 0 lf 1007,0 hPa 0,0 l/m 0,00 h 0,00 h 0 W/m 12,2 km/h (2 Bft) 95,12 %
26.08.2015 22:00 24,6 C 24,3 C 22,5 C 59 % 0 lf 1007,0 hPa 0,0 l/m 0,00 h 0,00 h 0 W/m 15,9 km/h (3 Bft) 98,14 %
26.08.2015 23:00 24,1 C 23,9 C 22,2 C 61 % 0 lf 1006,9 hPa 0,0 l/m 0,00 h 0,00 h 0 W/m 14,6 km/h (3 Bft) 95,75 %
27.08.2015 00:00 23,9 C 23,6 C 21,5 C 61 % 0 lf 1007,2 hPa 0,0 l/m 0,00 h 0,00 h 0 W/m 4,2 km/h (1 Bft) 94,93 %
27.08.2015 01:00 22,8 C 21,6 C 19,9 C 69 % 0 lf 1007,8 hPa 0,0 l/m 0,00 h 0,00 h 0 W/m 0,0 km/h (0 Bft) 98,22 %
27.08.2015 02:00 21,6 C 21,1 C 19,3 C 75 % 0 lf 1007,7 hPa 0,0 l/m 0,00 h 0,13 h 0 W/m 0,6 km/h (0 Bft) 96,63 %
27.08.2015 03:00 21,2 C 20,3 C 18,7 C 78 % 4 lf 1007,5 hPa 0,0 l/m 0,00 h 0,23 h 0 W/m 0,8 km/h (0 Bft) 94,48 %
27.08.2015 04:00 20,6 C 19,1 C 17,4 C 83 % 3 lf 1007,7 hPa 0,2 l/m 0,00 h 0,27 h 0 W/m 3,8 km/h (1 Bft) 97,80 %
27.08.2015 05:00 19,9 C 20,0 C 18,1 C 85 % 0 lf 1008,0 hPa 0,0 l/m 0,00 h 0,00 h 0 W/m 5,4 km/h (1 Bft) 96,98 %
27.08.2015 06:00 20,0 C 19,8 C 18,1 C 84 % 2 lf 1008,2 hPa 0,0 l/m 0,00 h 0,27 h 3 W/m 3,7 km/h (1 Bft) 95,87 %
27.08.2015 07:00 19,5 C 18,7 C 16,9 C 84 % 8 lf 1008,9 hPa 0,0 l/m 0,00 h 0,67 h 14 W/m 0,6 km/h (0 Bft) 95,41 %
27.08.2015 08:00 18,6 C 17,1 C 15,7 C 86 % 11 lf 1009,4 hPa 0,2 l/m 0,00 h 0,97 h 32 W/m 1,1 km/h (1 Bft) 97,48 %
27.08.2015 09:00 17,9 C 16,9 C 15,6 C 88 % 12 lf 1009,9 hPa 0,2 l/m 0,00 h 0,93 h 83 W/m 2,7 km/h (1 Bft) 96,58 %
27.08.2015 10:00 18,5 C 19,6 C 16,7 C 88 % 0 lf 1010,0 hPa 0,0 l/m 0,00 h 0,27 h 167 W/m 5,5 km/h (1 Bft) 94,75 %
27.08.2015 11:00 18,7 C 18,6 C 16,8 C 84 % 3 lf 1010,4 hPa 0,0 l/m 0,00 h 0,90 h 121 W/m 4,3 km/h (1 Bft) 97,30 %
27.08.2015 12:00 18,2 C 17,0 C 15,7 C 88 % 15 lf 1010,7 hPa 0,8 l/m 0,00 h 0,90 h 96 W/m 2,0 km/h (1 Bft) 96,03 %
27.08.2015 13:00 16,8 C 15,5 C 14,7 C 90 % 15 lf 1010,8 hPa 1,2 l/m 0,00 h 1,00 h 114 W/m 4,6 km/h (1 Bft) 97,20 %
27.08.2015 14:00 15,7 C 14,7 C 13,8 C 91 % 15 lf 1010,8 hPa 1,0 l/m 0,00 h 1,00 h 132 W/m 3,9 km/h (1 Bft) 95,39 %
27.08.2015 15:00 14,9 C 13,9 C 13,1 C 91 % 15 lf 1011,0 hPa 1,4 l/m 0,00 h 1,00 h 88 W/m 2,4 km/h (1 Bft) 96,22 %
27.08.2015 16:00 14,6 C 13,9 C 13,2 C 93 % 15 lf 1010,9 hPa 1,0 l/m 0,00 h 1,00 h 77 W/m 0,1 km/h (0 Bft) 96,00 %
27.08.2015 17:00 14,3 C 13,6 C 12,8 C 94 % 15 lf 1011,0 hPa 1,6 l/m 0,00 h 1,00 h 52 W/m 0,1 km/h (0 Bft) 98,45 %
27.08.2015 18:00 14,1 C 13,7 C 12,9 C 95 % 15 lf 1010,9 hPa 0,8 l/m 0,00 h 0,95 h 45 W/m 0,3 km/h (0 Bft) 94,20 %
27.08.2015 19:00 14,0 C 13,5 C 12,8 C 95 % 15 lf 1011,1 hPa 1,2 l/m 0,00 h 0,98 h 21 W/m 0,0 km/h (0 Bft) 96,24 %
27.08.2015 20:00 13,8 C 13,3 C 12,6 C 96 % 15 lf 1011,0 hPa 1,4 l/m 0,00 h 0,98 h 7 W/m 0,1 km/h (0 Bft) 96,07 %
27.08.2015 21:00 13,7 C 13,3 C 12,3 C 96 % 15 lf 1011,5 hPa 1,4 l/m 0,00 h 1,00 h 0 W/m 0,1 km/h (0 Bft) 96,91 %
27.08.2015 22:00 13,5 C 13,2 C 12,2 C 96 % 15 lf 1011,8 hPa 2,0 l/m 0,00 h 1,00 h 0 W/m 0,0 km/h (0 Bft) 94,18 %
27.08.2015 23:00 13,3 C 12,8 C 12,2 C 97 % 15 lf 1012,0 hPa 0,8 l/m 0,00 h 1,00 h 0 W/m 0,0 km/h (0 Bft) 97,86 %
28.08.2015 00:00 13,3 C 12,9 C 12,2 C 97 % 15 lf 1012,4 hPa 0,0 l/m 0,00 h 0,10 h 0 W/m 0,1 km/h (0 Bft) 96,43 %
28.08.2015 01:00 13,3 C 13,3 C 12,2 C 97 % 15 lf 1012,7 hPa 0,0 l/m 0,00 h 0,00 h 0 W/m 0,0 km/h (0 Bft) 95,85 %
28.08.2015 02:00 13,3 C 13,1 C 12,2 C 98 % 15 lf 1013,0 hPa 0,0 l/m 0,00 h 0,00 h 0 W/m 0,0 km/h (0 Bft) 96,13 %
28.08.2015 03:00 13,2 C 12,8 C 12,1 C 98 % 15 lf 1013,4 hPa 0,0 l/m 0,00 h 0,00 h 0 W/m 0,0 km/h (0 Bft) 96,30 %
28.08.2015 04:00 12,8 C 12,4 C 11,5 C 98 % 15 lf 1013,7 hPa 0,0 l/m 0,00 h 0,00 h 0 W/m 0,0 km/h (0 Bft) 97,23 %
28.08.2015 05:00 12,6 C 12,2 C 11,6 C 98 % 15 lf 1014,2 hPa 0,0 l/m 0,00 h 0,00 h 0 W/m 0,0 km/h (0 Bft) 95,73 %
28.08.2015 06:00 12,4 C 12,1 C 11,3 C 98 % 15 lf 1014,6 hPa 0,2 l/m 0,00 h 0,00 h 9 W/m 7,6 km/h (2 Bft) 96,13 %
28.08.2015 07:00 12,3 C 12,3 C 11,4 C 98 % 15 lf 1015,2 hPa 0,0 l/m 0,70 h 0,00 h 78 W/m 8,1 km/h (2 Bft) 97,62 %
28.08.2015 08:00 12,9 C 13,3 C 12,3 C 98 % 15 lf 1015,9 hPa 0,0 l/m 1,00 h 0,00 h 241 W/m 9,7 km/h (2 Bft) 97,29 %
28.08.2015 09:00 14,4 C 19,0 C 14,5 C 99 % 14 lf 1016,3 hPa 0,0 l/m 1,00 h 0,00 h 413 W/m 11,3 km/h (2 Bft) 93,77 %
28.08.2015 10:00 17,1 C 25,4 C 21,4 C 93 % 0 lf 1016,8 hPa 0,0 l/m 1,00 h 0,00 h 531 W/m 11,6 km/h (2 Bft) 97,88 %
28.08.2015 11:00 19,3 C 25,8 C 21,3 C 80 % 0 lf 1017,2 hPa 0,0 l/m 0,83 h 0,00 h 548 W/m 12,5 km/h (3 Bft) 96,40 %
28.08.2015 12:00 20,5 C 27,5 C 21,9 C 74 % 0 lf 1017,6 hPa 0,0 l/m 0,63 h 0,00 h 502 W/m 11,6 km/h (2 Bft) 95,64 %
28.08.2015 13:00 21,6 C 27,2 C 21,0 C 68 % 0 lf 1017,8 hPa 0,0 l/m 0,73 h 0,00 h 644 W/m 13,5 km/h (3 Bft) 97,15 %
28.08.2015 14:00 21,6 C 25,3 C 20,2 C 66 % 0 lf 1018,2 hPa 0,0 l/m 0,33 h 0,00 h 401 W/m 12,6 km/h (3 Bft) 95,63 %
28.08.2015 15:00 22,3 C 26,3 C 20,8 C 64 % 0 lf 1018,5 hPa 0,0 l/m 0,67 h 0,00 h 394 W/m 11,9 km/h (2 Bft) 95,60 %
28.08.2015 16:00 21,9 C 25,5 C 20,1 C 66 % 0 lf 1018,7 hPa 0,0 l/m 0,50 h 0,00 h 386 W/m 11,3 km/h (2 Bft) 96,06 %
28.08.2015 17:00 22,4 C 26,1 C 19,7 C 63 % 0 lf 1018,8 hPa 0,0 l/m 0,97 h 0,00 h 406 W/m 12,9 km/h (3 Bft) 97,29 %
28.08.2015 18:00 21,5 C 21,8 C 18,8 C 65 % 0 lf 1018,9 hPa 0,0 l/m 0,90 h 0,00 h 215 W/m 10,0 km/h (2 Bft) 95,37 %
28.08.2015 19:00 20,5 C 19,7 C 17,4 C 68 % 0 lf 1019,4 hPa 0,0 l/m 0,20 h 0,00 h 58 W/m 6,8 km/h (2 Bft) 97,51 %
28.08.2015 20:00 19,0 C 16,8 C 15,0 C 74 % 0 lf 1019,7 hPa 0,0 l/m 0,00 h 0,00 h 11 W/m 0,2 km/h (0 Bft) 95,02 %
28.08.2015 21:00 16,8 C 14,7 C 13,4 C 81 % 0 lf 1020,3 hPa 0,0 l/m 0,00 h 0,00 h 0 W/m 0,0 km/h (0 Bft) 97,37 %
28.08.2015 22:00 15,1 C 13,4 C 12,5 C 86 % 2 lf 1020,7 hPa 0,0 l/m 0,00 h 0,00 h 0 W/m 0,0 km/h (0 Bft) 96,73 %
28.08.2015 23:00 14,1 C 12,7 C 11,9 C 89 % 10 lf 1021,1 hPa 0,0 l/m 0,00 h 0,00 h 0 W/m 0,0 km/h (0 Bft) 94,32 %
29.08.2015 00:00 13,2 C 11,9 C 11,2 C 91 % 15 lf 1021,4 hPa 0,0 l/m 0,00 h 0,00 h 0 W/m 0,6 km/h (0 Bft) 96,90 %
29.08.2015 01:00 12,5 C 11,5 C 10,8 C 92 % 15 lf 1021,5 hPa 0,0 l/m 0,00 h 0,00 h 0 W/m 1,8 km/h (1 Bft) 98,51 %
29.08.2015 02:00 12,1 C 11,4 C 10,6 C 94 % 15 lf 1021,4 hPa 0,0 l/m 0,00 h 0,00 h 0 W/m 3,4 km/h (1 Bft) 93,79 %
29.08.2015 03:00 11,9 C 11,2 C 10,6 C 95 % 15 lf 1021,5 hPa 0,0 l/m 0,00 h 0,00 h 0 W/m 3,1 km/h (1 Bft) 96,38 %
29.08.2015 04:00 11,5 C 10,6 C 10,0 C 95 % 15 lf 1021,8 hPa 0,0 l/m 0,00 h 0,00 h 0 W/m 2,0 km/h (1 Bft) 98,11 %
29.08.2015 05:00 11,3 C 10,9 C 10,0 C 96 % 15 lf 1021,8 hPa 0,0 l/m 0,00 h 0,00 h 0 W/m 4,8 km/h (1 Bft) 94,59 %
29.08.2015 06:00 11,4 C 11,1 C 10,0 C 97 % 15 lf 1021,8 hPa 0,0 l/m 0,00 h 0,00 h 8 W/m 5,1 km/h (1 Bft) 97,89 %
29.08.2015 07:00 11,6 C 11,7 C 10,8 C 97 % 15 lf 1022,1 hPa 0,0 l/m 0,57 h 0,00 h 66 W/m 6,2 km/h (2 Bft) 96,48 %
29.08.2015 08:00 12,9 C 13,5 C 12,6 C 98 % 15 lf 1022,2 hPa 0,0 l/m 0,90 h 0,00 h 206 W/m 8,3 km/h (2 Bft) 95,01 %
29.08.2015 09:00 15,1 C 20,8 C 15,3 C 99 % 11 lf 1022,2 hPa 0,0 l/m 0,97 h 0,00 h 381 W/m 11,7 km/h (2 Bft) 97,79 %
29.08.2015 10:00 18,2 C 25,4 C 22,8 C 91 % 0 lf 1022,3 hPa 0,0 l/m 0,97 h 0,00 h 523 W/m 11,9 km/h (2 Bft) 95,35 %
29.08.2015 11:00 22,1 C 30,0 C 25,6 C 75 % 0 lf 1022,1 hPa 0,0 l/m 1,00 h 0,00 h 629 W/m 11,2 km/h (2 Bft) 95,31 %
29.08.2015 12:00 24,2 C 31,0 C 26,2 C 66 % 0 lf 1021,8 hPa 0,0 l/m 0,97 h 0,00 h 712 W/m 12,4 km/h (3 Bft) 97,52 %
29.08.2015 13:00 25,1 C 30,9 C 23,7 C 64 % 0 lf 1021,4 hPa 0,0 l/m 0,87 h 0,00 h 663 W/m 13,0 km/h (3 Bft) 95,00 %
29.08.2015 14:00 25,7 C 31,8 C 23,6 C 62 % 0 lf 1020,8 hPa 0,0 l/m 0,93 h 0,00 h 678 W/m 9,0 km/h (2 Bft) 94,89 %
29.08.2015 15:00 26,4 C 33,3 C 24,5 C 62 % 0 lf 1020,2 hPa 0,0 l/m 1,00 h 0,00 h 706 W/m 10,0 km/h (2 Bft) 97,34 %
29.08.2015 16:00 26,6 C 31,6 C 24,4 C 63 % 0 lf 1019,7 hPa 0,0 l/m 1,00 h 0,00 h 573 W/m 12,3 km/h (3 Bft) 96,05 %
29.08.2015 17:00 27,0 C 30,8 C 24,2 C 63 % 0 lf 1019,3 hPa 0,0 l/m 1,00 h 0,00 h 441 W/m 10,5 km/h (2 Bft) 95,41 %
29.08.2015 18:00 26,4 C 26,5 C 23,4 C 65 % 0 lf 1019,0 hPa 0,0 l/m 0,73 h 0,00 h 226 W/m 8,8 km/h (2 Bft) 95,60 %
29.08.2015 19:00 25,1 C 24,4 C 22,0 C 69 % 0 lf 1018,7 hPa 0,0 l/m 0,00 h 0,00 h 51 W/m 5,5 km/h (1 Bft) 98,35 %
29.08.2015 20:00 23,8 C 22,4 C 20,3 C 73 % 0 lf 1018,8 hPa 0,0 l/m 0,00 h 0,00 h 13 W/m 6,0 km/h (2 Bft) 95,03 %
29.08.2015 21:00 22,2 C 20,7 C 18,6 C 78 % 0 lf 1018,8 hPa 0,0 l/m 0,00 h 0,00 h 0 W/m 5,5 km/h (1 Bft) 95,40 %
29.08.2015 22:00 20,9 C 19,4 C 17,6 C 81 % 0 lf 1018,6 hPa 0,0 l/m 0,00 h 0,00 h 0 W/m 1,4 km/h (1 Bft) 97,67 %
29.08.2015 23:00 19,8 C 18,2 C 16,8 C 84 % 0 lf 1018,3 hPa 0,0 l/m 0,00 h 0,00 h 0 W/m 3,0 km/h (1 Bft) 96,52 %
30.08.2015 00:00 18,9 C 17,7 C 16,3 C 87 % 0 lf 1018,0 hPa 0,0 l/m 0,00 h 0,00 h 0 W/m 2,8 km/h (1 Bft) 92,95 %
30.08.2015 01:00 18,2 C 17,0 C 16,0 C 88 % 0 lf 1017,8 hPa 0,0 l/m 0,00 h 0,00 h 0 W/m 0,9 km/h (0 Bft) 98,29 %
30.08.2015 02:00 17,7 C 17,0 C 15,9 C 90 % 0 lf 1017,2 hPa 0,0 l/m 0,00 h 0,00 h 0 W/m 1,4 km/h (1 Bft) 96,64 %
30.08.2015 03:00 17,6 C 17,1 C 15,8 C 92 % 1 lf 1016,4 hPa 0,0 l/m 0,00 h 0,00 h 0 W/m 2,9 km/h (1 Bft) 94,60 %
30.08.2015 04:00 17,5 C 16,8 C 15,9 C 94 % 1 lf 1016,2 hPa 0,0 l/m 0,00 h 0,00 h 0 W/m 3,6 km/h (1 Bft) 78,77 %
30.08.2015 05:00 17,4 C 16,9 C 16,0 C 94 % 0 lf 1016,4 hPa 0,0 l/m 0,00 h 0,00 h 0 W/m 8,1 km/h (2 Bft) 96,23 %
30.08.2015 06:00 17,3 C 17,3 C 16,1 C 94 % 0 lf 1016,5 hPa 0,0 l/m 0,07 h 0,00 h 22 W/m 9,6 km/h (2 Bft) 96,92 %
30.08.2015 07:00 17,7 C 18,7 C 17,0 C 94 % 0 lf 1016,3 hPa 0,0 l/m 0,80 h 0,00 h 76 W/m 11,8 km/h (2 Bft) 96,28 %
30.08.2015 08:00 18,5 C 19,7 C 17,6 C 93 % 0 lf 1016,5 hPa 0,0 l/m 0,23 h 0,00 h 110 W/m 9,3 km/h (2 Bft) 95,66 %
30.08.2015 09:00 19,8 C 26,7 C 20,1 C 91 % 0 lf 1016,6 hPa 0,0 l/m 0,77 h 0,00 h 309 W/m 8,9 km/h (2 Bft) 96,36 %
30.08.2015 10:00 23,9 C 31,2 C 28,7 C 82 % 0 lf 1015,7 hPa 0,0 l/m 1,00 h 0,00 h 515 W/m 13,1 km/h (3 Bft) 96,67 %
30.08.2015 11:00 27,0 C 33,9 C 30,8 C 76 % 0 lf 1015,6 hPa 0,0 l/m 1,00 h 0,00 h 624 W/m 11,9 km/h (2 Bft) 96,22 %
30.08.2015 12:00 29,6 C 36,5 C 32,1 C 71 % 0 lf 1015,3 hPa 0,0 l/m 0,97 h 0,00 h 699 W/m 11,7 km/h (2 Bft) 95,70 %
30.08.2015 13:00 31,9 C 39,6 C 30,5 C 63 % 0 lf 1014,8 hPa 0,0 l/m 1,00 h 0,00 h 741 W/m 13,0 km/h (3 Bft) 96,54 %
30.08.2015 14:00 33,3 C 39,5 C 30,5 C 60 % 0 lf 1014,5 hPa 0,0 l/m 0,88 h 0,00 h 660 W/m 12,1 km/h (2 Bft) 96,91 %
30.08.2015 15:00 33,8 C 39,4 C 30,8 C 59 % 0 lf 1014,3 hPa 0,0 l/m 1,00 h 0,00 h 608 W/m 16,3 km/h (3 Bft) 94,13 %
30.08.2015 16:00 33,2 C 37,0 C 30,3 C 59 % 0 lf 1014,2 hPa 0,0 l/m 0,93 h 0,00 h 417 W/m 15,5 km/h (3 Bft) 96,93 %
30.08.2015 17:00 32,1 C 34,8 C 29,3 C 64 % 0 lf 1014,2 hPa 0,0 l/m 0,93 h 0,00 h 314 W/m 10,8 km/h (2 Bft) 97,72 %
30.08.2015 18:00 31,1 C 31,4 C 27,8 C 67 % 0 lf 1014,2 hPa 0,0 l/m 0,20 h 0,00 h 128 W/m 6,2 km/h (2 Bft) 94,23 %
30.08.2015 19:00 29,6 C 28,5 C 25,4 C 73 % 0 lf 1014,2 hPa 0,0 l/m 0,00 h 0,00 h 44 W/m 3,1 km/h (1 Bft) 96,58 %
30.08.2015 20:00 27,8 C 25,6 C 23,3 C 79 % 0 lf 1014,2 hPa 0,0 l/m 0,00 h 0,00 h 11 W/m 0,0 km/h (0 Bft) 98,79 %
30.08.2015 21:00 26,0 C 24,0 C 22,3 C 84 % 0 lf 1014,3 hPa 0,0 l/m 0,00 h 0,00 h 0 W/m 0,0 km/h (0 Bft) 94,59 %
30.08.2015 22:00 24,6 C 22,8 C 21,2 C 87 % 1 lf 1013,6 hPa 0,0 l/m 0,00 h 0,00 h 0 W/m 0,0 km/h (0 Bft) 96,53 %
30.08.2015 23:00 23,5 C 22,4 C 20,6 C 90 % 1 lf 1013,8 hPa 0,0 l/m 0,00 h 0,00 h 0 W/m 0,0 km/h (0 Bft) 98,08 %
Min-Datum _ 29.08.15 29.08.15 29.08.15 26.08.15 24.08.15 24.08.15 - - - - 25.08.15 25.08.15
_ Min-Zeit 05:14 04:30 03:58 16:40 09:36 16:30 - - - - 17:02 17:02
Minimum _ 11,2 C 10,0 C 10,0 C 52 % 0 lf 998,8 hPa - - - - 0,0 km/h (0 Bft) 0,00 %
Max-Datum _ 30.08.15 30.08.15 30.08.15 24.08.15 24.08.15 29.08.15 24.08.15 24.08.15 24.08.15 24.08.15 24.08.15 24.08.15
_ Max-Zeit 14:54 14:22 12:08 09:00 00:00 07:44 00:07 07:16 00:00 13:42 19:01 00:00
Maximum _ 33,9 C 41,7 C 33,9 C 99 % 15 lf 1022,5 hPa 4,0 l/m 0,03 h 0,03 h 1035 W/m 54,4 km/h
S (7 Bft)
100,00 %
Durchschnitt _ 19,6 C 20,7 C 18,2 C 80 % 5 lf 1012,4 hPa #25,2 l/m #50:51 h #23:50 h 292 W/m 10,6 km/h (2 Bft) 96,09 %
© 2015 W. Hausmann